createdAt,value
2019-01-17T00:00:34.928Z,6.3
2019-01-17T00:01:36.289Z,6.4
2019-01-17T00:02:37.653Z,6.4
2019-01-17T00:03:39.015Z,6.4
2019-01-17T00:04:40.382Z,6.4
2019-01-17T00:05:41.741Z,6.4
2019-01-17T00:06:43.104Z,6.4
2019-01-17T00:07:44.469Z,6.4
2019-01-17T00:08:45.834Z,6.3
2019-01-17T00:09:47.200Z,6.3
2019-01-17T00:10:48.561Z,6.3
2019-01-17T00:11:49.924Z,6.3
2019-01-17T00:12:51.290Z,6.3
2019-01-17T00:13:52.655Z,6.4
2019-01-17T00:14:54.014Z,6.4
2019-01-17T00:15:55.378Z,6.4
2019-01-17T00:16:56.742Z,6.3
2019-01-17T00:17:58.103Z,6.3
2019-01-17T00:18:59.468Z,6.3
2019-01-17T00:20:00.831Z,6.2
2019-01-17T00:21:02.194Z,6.2
2019-01-17T00:22:03.556Z,6.2
2019-01-17T00:23:04.913Z,6.1
2019-01-17T00:24:06.274Z,6.1
2019-01-17T00:25:07.641Z,6.1
2019-01-17T00:26:08.999Z,6.1
2019-01-17T00:27:10.364Z,6.1
2019-01-17T00:28:11.726Z,6.0
2019-01-17T00:29:13.083Z,6.1
2019-01-17T00:30:14.444Z,6.1
2019-01-17T00:31:15.803Z,6.1
2019-01-17T00:32:17.168Z,6.0
2019-01-17T00:33:18.542Z,6.0
2019-01-17T00:34:19.961Z,6.1
2019-01-17T00:35:21.326Z,6.1
2019-01-17T00:36:22.687Z,6.1
2019-01-17T00:37:24.046Z,6.0
2019-01-17T00:38:25.405Z,6.1
2019-01-17T00:39:26.772Z,6.0
2019-01-17T00:40:28.135Z,6.1
2019-01-17T00:41:29.499Z,6.1
2019-01-17T00:42:30.856Z,6.1
2019-01-17T00:43:32.218Z,6.0
2019-01-17T00:44:33.577Z,6.0
2019-01-17T00:45:34.935Z,6.1
2019-01-17T00:46:36.295Z,6.1
2019-01-17T00:47:37.659Z,6.0
2019-01-17T00:48:39.023Z,6.0
2019-01-17T00:49:40.378Z,5.9
2019-01-17T00:50:41.748Z,6.0
2019-01-17T00:51:43.127Z,6.0
2019-01-17T00:52:44.488Z,6.0
2019-01-17T00:53:45.852Z,5.9
2019-01-17T00:54:47.213Z,6.0
2019-01-17T00:55:48.584Z,5.9
2019-01-17T00:56:49.939Z,6.0
2019-01-17T00:57:51.300Z,6.0
2019-01-17T00:58:52.670Z,6.0
2019-01-17T00:59:54.033Z,5.9
2019-01-17T01:00:55.393Z,5.9
2019-01-17T01:01:56.760Z,5.9
2019-01-17T01:02:58.123Z,5.9
2019-01-17T01:03:59.488Z,5.9
2019-01-17T01:05:00.850Z,5.9
2019-01-17T01:06:02.211Z,5.9
2019-01-17T01:07:03.568Z,5.8
2019-01-17T01:08:04.928Z,5.9
2019-01-17T01:09:06.290Z,5.9
2019-01-17T01:10:07.655Z,5.9
2019-01-17T01:11:09.018Z,5.9
2019-01-17T01:12:10.380Z,5.8
2019-01-17T01:13:11.741Z,5.9
2019-01-17T01:14:13.101Z,5.9
2019-01-17T01:15:14.462Z,6.0
2019-01-17T01:16:15.825Z,5.9
2019-01-17T01:17:17.191Z,5.9
2019-01-17T01:18:18.554Z,6.0
2019-01-17T01:19:19.913Z,6.0
2019-01-17T01:20:21.274Z,5.9
2019-01-17T01:21:22.634Z,5.9
2019-01-17T01:22:23.994Z,5.9
2019-01-17T01:23:25.356Z,5.9
2019-01-17T01:24:26.721Z,5.9
2019-01-17T01:25:28.093Z,5.9
2019-01-17T01:26:29.442Z,5.9
2019-01-17T01:27:30.804Z,5.8
2019-01-17T01:28:32.163Z,5.9
2019-01-17T01:29:33.524Z,5.9
2019-01-17T01:30:34.885Z,5.9
2019-01-17T01:31:36.248Z,5.9
2019-01-17T01:32:37.613Z,6.0
2019-01-17T01:33:38.973Z,6.0
2019-01-17T01:34:40.333Z,6.0
2019-01-17T01:35:41.693Z,6.0
2019-01-17T01:36:43.055Z,6.0
2019-01-17T01:37:44.416Z,6.0
2019-01-17T01:38:45.786Z,6.0
2019-01-17T01:39:47.144Z,6.1
2019-01-17T01:40:48.503Z,6.1
2019-01-17T01:41:49.864Z,6.1
2019-01-17T01:42:51.224Z,6.0
2019-01-17T01:43:52.590Z,6.1
2019-01-17T01:44:53.952Z,6.1
2019-01-17T01:45:55.315Z,6.1
2019-01-17T01:46:56.681Z,6.2
2019-01-17T01:47:58.039Z,6.2
2019-01-17T01:48:59.400Z,6.2
2019-01-17T01:50:00.760Z,6.2
2019-01-17T01:51:02.125Z,6.2
2019-01-17T01:52:03.485Z,6.2
2019-01-17T01:53:04.851Z,6.2
2019-01-17T01:54:06.212Z,6.2
2019-01-17T01:55:07.572Z,6.2
2019-01-17T01:56:08.932Z,6.2
2019-01-17T01:57:10.292Z,6.2
2019-01-17T01:58:11.656Z,6.3
2019-01-17T01:59:13.025Z,6.3
2019-01-17T02:00:14.381Z,6.3
2019-01-17T02:01:15.747Z,6.2
2019-01-17T02:02:17.106Z,6.3
2019-01-17T02:03:18.465Z,6.3
2019-01-17T02:04:19.830Z,6.3
2019-01-17T02:05:21.196Z,6.4
2019-01-17T02:06:22.558Z,6.4
2019-01-17T02:07:23.922Z,6.3
2019-01-17T02:08:25.282Z,6.4
2019-01-17T02:09:26.642Z,6.4
2019-01-17T02:10:28.003Z,6.3
2019-01-17T02:11:29.366Z,6.5
2019-01-17T02:12:30.727Z,6.5
2019-01-17T02:13:32.092Z,6.4
2019-01-17T02:14:33.457Z,6.5
2019-01-17T02:15:34.815Z,6.5
2019-01-17T02:16:36.177Z,6.5
2019-01-17T02:17:37.539Z,6.5
2019-01-17T02:18:38.900Z,6.5
2019-01-17T02:19:40.263Z,6.5
2019-01-17T02:20:41.624Z,6.5
2019-01-17T02:21:42.988Z,6.4
2019-01-17T02:22:44.351Z,6.5
2019-01-17T02:23:45.713Z,6.4
2019-01-17T02:24:47.074Z,6.5
2019-01-17T02:25:48.437Z,6.5
2019-01-17T02:26:49.801Z,6.5
2019-01-17T02:27:51.165Z,6.5
2019-01-17T02:28:52.529Z,6.5
2019-01-17T02:29:53.892Z,6.5
2019-01-17T02:30:55.254Z,6.5
2019-01-17T02:31:56.616Z,6.5
2019-01-17T02:32:57.977Z,6.6
2019-01-17T02:33:59.336Z,6.5
2019-01-17T02:35:00.697Z,6.5
2019-01-17T02:36:02.061Z,6.5
2019-01-17T02:37:03.428Z,6.5
2019-01-17T02:38:04.785Z,6.5
2019-01-17T02:39:06.149Z,6.6
2019-01-17T02:40:07.508Z,6.6
2019-01-17T02:41:08.869Z,6.7
2019-01-17T02:42:10.234Z,6.7
2019-01-17T02:43:11.598Z,6.7
2019-01-17T02:44:12.963Z,6.8
2019-01-17T02:45:14.324Z,6.7
2019-01-17T02:46:15.682Z,6.7
2019-01-17T02:47:17.045Z,6.8
2019-01-17T02:48:18.407Z,6.7
2019-01-17T02:49:19.772Z,6.6
2019-01-17T02:50:21.134Z,6.6
2019-01-17T02:51:22.501Z,6.6
2019-01-17T02:52:23.861Z,6.7
2019-01-17T02:53:25.222Z,6.7
2019-01-17T02:54:26.582Z,6.6
2019-01-17T02:55:27.943Z,6.8
2019-01-17T02:56:29.307Z,6.8
2019-01-17T02:57:30.671Z,6.7
2019-01-17T02:58:32.035Z,6.6
2019-01-17T02:59:33.390Z,6.7
2019-01-17T03:00:34.752Z,6.7
2019-01-17T03:01:36.115Z,6.7
2019-01-17T03:02:37.476Z,6.7
2019-01-17T03:03:38.837Z,6.6
2019-01-17T03:04:40.204Z,6.6
2019-01-17T03:05:41.563Z,6.6
2019-01-17T03:06:42.922Z,6.6
2019-01-17T03:07:44.294Z,6.5
2019-01-17T03:08:45.644Z,6.5
2019-01-17T03:09:47.006Z,6.6
2019-01-17T03:10:48.366Z,6.6
2019-01-17T03:11:49.734Z,6.6
2019-01-17T03:12:51.095Z,6.6
2019-01-17T03:13:52.454Z,6.6
2019-01-17T03:14:53.818Z,6.5
2019-01-17T03:15:55.173Z,6.5
2019-01-17T03:16:56.538Z,6.5
2019-01-17T03:17:57.901Z,6.6
2019-01-17T03:18:59.264Z,6.6
2019-01-17T03:20:00.626Z,6.6
2019-01-17T03:21:01.988Z,6.6
2019-01-17T03:22:03.347Z,6.6
2019-01-17T03:23:04.708Z,6.6
2019-01-17T03:24:06.071Z,6.7
2019-01-17T03:25:07.432Z,6.8
2019-01-17T03:26:08.801Z,6.8
2019-01-17T03:27:10.197Z,6.7
2019-01-17T03:28:11.521Z,6.7
2019-01-17T03:29:12.884Z,6.7
2019-01-17T03:30:14.247Z,6.7
2019-01-17T03:31:15.616Z,6.6
2019-01-17T03:32:16.976Z,6.7
2019-01-17T03:33:18.336Z,6.8
2019-01-17T03:34:19.699Z,6.7
2019-01-17T03:35:21.057Z,6.7
2019-01-17T03:36:22.417Z,6.7
2019-01-17T03:37:23.778Z,6.8
2019-01-17T03:38:25.143Z,6.8
2019-01-17T03:39:26.514Z,6.7
2019-01-17T03:40:27.872Z,6.8
2019-01-17T03:41:29.235Z,6.8
2019-01-17T03:42:31.337Z,6.7
2019-01-17T03:43:31.923Z,6.9
2019-01-17T03:44:33.282Z,6.8
2019-01-17T03:45:34.647Z,6.9
2019-01-17T03:46:36.012Z,6.9
2019-01-17T03:47:37.371Z,6.7
2019-01-17T03:48:38.730Z,6.8
2019-01-17T03:49:40.092Z,6.7
2019-01-17T03:50:41.455Z,6.8
2019-01-17T03:51:42.820Z,6.7
2019-01-17T03:52:44.184Z,6.7
2019-01-17T03:53:45.542Z,6.7
2019-01-17T03:54:51.242Z,6.8
2019-01-17T03:55:48.233Z,6.8
2019-01-17T03:56:49.599Z,6.7
2019-01-17T03:57:50.958Z,6.7
2019-01-17T03:58:52.321Z,6.9
2019-01-17T03:59:53.685Z,6.8
2019-01-17T04:00:55.046Z,6.8
2019-01-17T04:01:56.410Z,6.8
2019-01-17T04:02:57.776Z,6.7
2019-01-17T04:03:59.136Z,6.8
2019-01-17T04:05:00.679Z,6.8
2019-01-17T04:06:01.821Z,6.8
2019-01-17T04:07:03.184Z,6.8
2019-01-17T04:08:04.548Z,6.8
2019-01-17T04:09:05.912Z,6.7
2019-01-17T04:10:07.284Z,6.8
2019-01-17T04:11:08.633Z,6.9
2019-01-17T04:12:09.997Z,6.8
2019-01-17T04:13:11.357Z,6.9
2019-01-17T04:14:12.722Z,6.9
2019-01-17T04:15:14.088Z,7.0
2019-01-17T04:16:15.449Z,7.0
2019-01-17T04:17:18.567Z,7.0
2019-01-17T04:18:19.903Z,6.9
2019-01-17T04:19:21.262Z,6.9
2019-01-17T04:20:22.623Z,6.9
2019-01-17T04:21:23.985Z,7.0
2019-01-17T04:22:25.348Z,7.0
2019-01-17T04:23:26.739Z,7.0
2019-01-17T04:24:28.144Z,7.0
2019-01-17T04:25:29.563Z,7.0
2019-01-17T04:26:30.957Z,7.1
2019-01-17T04:27:33.830Z,7.1
2019-01-17T04:28:36.354Z,7.1
2019-01-17T04:29:38.703Z,7.1
2019-01-17T04:30:41.346Z,7.1
2019-01-17T04:31:43.511Z,7.1
2019-01-17T04:32:46.158Z,7.1
2019-01-17T04:33:48.454Z,7.1
2019-01-17T04:34:50.775Z,7.1
2019-01-17T04:35:52.660Z,7.2
2019-01-17T04:36:54.793Z,7.2
2019-01-17T04:37:56.837Z,7.2
2019-01-17T04:38:59.381Z,7.1
2019-01-17T04:40:01.988Z,7.1
2019-01-17T04:41:04.078Z,7.1
2019-01-17T04:42:06.774Z,7.1
2019-01-17T04:43:09.169Z,7.0
2019-01-17T04:44:11.210Z,7.0
2019-01-17T04:45:13.218Z,7.0
2019-01-17T04:46:15.322Z,7.1
2019-01-17T04:47:17.460Z,7.0
2019-01-17T04:48:19.406Z,7.1
2019-01-17T04:49:21.832Z,7.0
2019-01-17T04:50:23.722Z,7.1
2019-01-17T04:51:25.974Z,7.1
2019-01-17T04:52:27.984Z,6.9
2019-01-17T04:53:30.332Z,7.0
2019-01-17T04:54:32.209Z,7.0
2019-01-17T04:55:34.181Z,6.9
2019-01-17T04:56:36.151Z,7.0
2019-01-17T04:57:37.900Z,6.9
2019-01-17T04:58:39.702Z,6.9
2019-01-17T04:59:41.644Z,7.0
2019-01-17T05:00:43.489Z,7.0
2019-01-17T05:01:45.252Z,7.0
2019-01-17T05:02:46.968Z,6.9
2019-01-17T05:03:48.677Z,7.0
2019-01-17T05:04:50.548Z,6.8
2019-01-17T05:05:52.325Z,6.9
2019-01-17T05:06:53.968Z,6.8
2019-01-17T05:07:55.570Z,6.9
2019-01-17T05:08:57.373Z,6.9
2019-01-17T05:09:59.146Z,6.9
2019-01-17T05:11:00.984Z,6.8
2019-01-17T05:12:02.796Z,6.8
2019-01-17T05:13:04.408Z,6.8
2019-01-17T05:14:06.149Z,6.9
2019-01-17T05:15:07.932Z,6.8
2019-01-17T05:16:09.742Z,6.8
2019-01-17T05:17:11.483Z,6.8
2019-01-17T05:18:13.242Z,6.8
2019-01-17T05:19:15.122Z,6.8
2019-01-17T05:20:16.785Z,6.7
2019-01-17T05:21:18.581Z,6.8
2019-01-17T05:22:20.524Z,6.7
2019-01-17T05:23:22.276Z,6.6
2019-01-17T05:24:23.944Z,6.6
2019-01-17T05:25:25.646Z,6.6
2019-01-17T05:26:27.326Z,6.8
2019-01-17T05:27:29.149Z,6.7
2019-01-17T05:28:30.873Z,6.6
2019-01-17T05:29:32.786Z,6.7
2019-01-17T05:30:34.604Z,6.6
2019-01-17T05:31:36.273Z,6.7
2019-01-17T05:32:37.995Z,6.7
2019-01-17T05:33:39.827Z,6.7
2019-01-17T05:34:41.493Z,6.7
2019-01-17T05:35:43.297Z,6.6
2019-01-17T05:36:45.067Z,6.7
2019-01-17T05:37:46.891Z,6.6
2019-01-17T05:38:48.686Z,6.6
2019-01-17T05:39:50.358Z,6.7
2019-01-17T05:40:52.009Z,6.6
2019-01-17T05:41:53.886Z,6.7
2019-01-17T05:42:55.639Z,6.7
2019-01-17T05:43:57.446Z,6.6
2019-01-17T05:44:59.305Z,6.6
2019-01-17T05:46:01.172Z,6.6
2019-01-17T05:47:02.989Z,6.6
2019-01-17T05:48:04.751Z,6.5
2019-01-17T05:49:06.526Z,6.5
2019-01-17T05:50:08.318Z,6.6
2019-01-17T05:51:09.997Z,6.6
2019-01-17T05:52:11.343Z,6.6
2019-01-17T05:53:12.714Z,6.5
2019-01-17T05:54:14.064Z,6.5
2019-01-17T05:55:19.735Z,6.5
2019-01-17T05:56:16.752Z,6.5
2019-01-17T05:57:18.116Z,6.5
2019-01-17T05:58:19.479Z,6.6
2019-01-17T05:59:20.837Z,6.5
2019-01-17T06:00:22.199Z,6.5
2019-01-17T06:01:23.560Z,6.5
2019-01-17T06:02:24.928Z,6.5
2019-01-17T06:03:26.284Z,6.5
2019-01-17T06:04:27.651Z,6.4
2019-01-17T06:05:29.012Z,6.5
2019-01-17T06:06:33.233Z,6.4
2019-01-17T06:07:31.695Z,6.3
2019-01-17T06:08:33.060Z,6.4
2019-01-17T06:09:34.421Z,6.3
2019-01-17T06:10:35.782Z,6.3
2019-01-17T06:11:37.146Z,6.3
2019-01-17T06:12:38.510Z,6.4
2019-01-17T06:13:39.872Z,6.3
2019-01-17T06:14:41.237Z,6.3
2019-01-17T06:15:43.485Z,6.3
2019-01-17T06:16:43.928Z,6.3
2019-01-17T06:17:45.291Z,6.3
2019-01-17T06:18:46.654Z,6.3
2019-01-17T06:19:48.018Z,6.3
2019-01-17T06:20:49.381Z,6.2
2019-01-17T06:21:50.740Z,6.2
2019-01-17T06:22:52.096Z,6.1
2019-01-17T06:23:53.458Z,6.2
2019-01-17T06:24:54.819Z,5.9
2019-01-17T06:25:56.182Z,6.1
2019-01-17T06:26:57.546Z,6.0
2019-01-17T06:27:58.906Z,6.1
2019-01-17T06:29:00.267Z,6.0
2019-01-17T06:30:01.636Z,5.9
2019-01-17T06:31:02.988Z,6.0
2019-01-17T06:32:04.354Z,5.9
2019-01-17T06:33:05.738Z,6.0
2019-01-17T06:34:07.077Z,6.0
2019-01-17T06:35:08.441Z,6.0
2019-01-17T06:36:09.802Z,6.0
2019-01-17T06:37:11.160Z,6.0
2019-01-17T06:38:12.520Z,6.1
2019-01-17T06:39:13.879Z,6.1
2019-01-17T06:40:15.253Z,6.0
2019-01-17T06:41:16.611Z,6.0
2019-01-17T06:42:17.978Z,6.0
2019-01-17T06:43:19.334Z,6.0
2019-01-17T06:44:20.719Z,6.1
2019-01-17T06:45:22.058Z,6.1
2019-01-17T06:46:23.422Z,6.0
2019-01-17T06:47:24.802Z,6.0
2019-01-17T06:48:26.166Z,6.0
2019-01-17T06:49:27.530Z,6.0
2019-01-17T06:50:28.899Z,6.0
2019-01-17T06:51:30.248Z,6.0
2019-01-17T06:52:31.613Z,5.9
2019-01-17T06:53:32.975Z,6.0
2019-01-17T06:54:34.335Z,5.9
2019-01-17T06:55:35.695Z,5.9
2019-01-17T06:56:37.064Z,6.0
2019-01-17T06:57:38.426Z,6.0
2019-01-17T06:58:39.784Z,6.0
2019-01-17T06:59:41.151Z,6.1
2019-01-17T07:00:42.515Z,6.1
2019-01-17T07:01:43.877Z,6.1
2019-01-17T07:02:45.244Z,6.1
2019-01-17T07:03:46.604Z,6.1
2019-01-17T07:04:47.962Z,6.2
2019-01-17T07:05:49.322Z,6.1
2019-01-17T07:06:50.690Z,6.1
2019-01-17T07:07:52.048Z,6.1
2019-01-17T07:08:53.414Z,6.1
2019-01-17T07:09:54.780Z,6.1
2019-01-17T07:10:56.139Z,6.2
2019-01-17T07:11:57.504Z,6.2
2019-01-17T07:12:58.871Z,6.2
2019-01-17T07:14:00.238Z,6.2
2019-01-17T07:15:01.603Z,6.2
2019-01-17T07:16:03.014Z,6.2
2019-01-17T07:17:04.368Z,6.3
2019-01-17T07:18:05.733Z,6.2
2019-01-17T07:19:07.096Z,6.2
2019-01-17T07:20:08.463Z,6.3
2019-01-17T07:21:09.845Z,6.2
2019-01-17T07:22:11.211Z,6.3
2019-01-17T07:23:12.577Z,6.3
2019-01-17T07:24:13.973Z,6.3
2019-01-17T07:25:15.305Z,6.3
2019-01-17T07:26:16.663Z,6.3
2019-01-17T07:27:18.033Z,6.3
2019-01-17T07:28:19.402Z,6.2
2019-01-17T07:29:20.764Z,6.3
2019-01-17T07:30:22.133Z,6.3
2019-01-17T07:31:23.495Z,6.3
2019-01-17T07:32:24.864Z,6.2
2019-01-17T07:33:26.229Z,6.2
2019-01-17T07:34:27.592Z,6.2
2019-01-17T07:35:28.958Z,6.1
2019-01-17T07:36:30.321Z,6.1
2019-01-17T07:37:31.686Z,6.1
2019-01-17T07:38:33.051Z,6.1
2019-01-17T07:39:35.565Z,6.1
2019-01-17T07:40:35.743Z,6.0
2019-01-17T07:41:37.111Z,6.2
2019-01-17T07:42:38.481Z,6.1
2019-01-17T07:43:39.839Z,6.1
2019-01-17T07:44:41.214Z,6.0
2019-01-17T07:45:42.579Z,6.1
2019-01-17T07:46:43.941Z,6.0
2019-01-17T07:47:45.308Z,6.1
2019-01-17T07:48:46.671Z,6.1
2019-01-17T07:49:48.037Z,6.1
2019-01-17T07:50:49.403Z,6.1
2019-01-17T07:51:50.768Z,6.0
2019-01-17T07:52:52.134Z,6.1
2019-01-17T07:53:53.492Z,6.1
2019-01-17T07:54:54.869Z,6.1
2019-01-17T07:55:56.228Z,6.0
2019-01-17T07:56:57.597Z,6.1
2019-01-17T07:57:58.959Z,6.1
2019-01-17T07:59:00.323Z,6.1
2019-01-17T08:00:01.694Z,6.1
2019-01-17T08:01:03.057Z,6.0
2019-01-17T08:02:04.423Z,6.1
2019-01-17T08:03:05.787Z,6.1
2019-01-17T08:04:07.154Z,6.1
2019-01-17T08:05:08.518Z,6.1
2019-01-17T08:06:09.923Z,6.3
2019-01-17T08:07:11.252Z,6.2
2019-01-17T08:08:12.616Z,6.3
2019-01-17T08:09:13.982Z,6.3
2019-01-17T08:10:15.347Z,6.3
2019-01-17T08:11:16.712Z,6.3
2019-01-17T08:12:18.079Z,6.3
2019-01-17T08:13:19.450Z,6.3
2019-01-17T08:14:20.813Z,6.3
2019-01-17T08:15:22.182Z,6.3
2019-01-17T08:16:23.548Z,6.3
2019-01-17T08:17:24.919Z,6.3
2019-01-17T08:18:26.284Z,6.3
2019-01-17T08:19:27.651Z,6.3
2019-01-17T08:20:29.027Z,6.4
2019-01-17T08:21:30.395Z,6.4
2019-01-17T08:22:31.762Z,6.5
2019-01-17T08:23:34.641Z,6.5
2019-01-17T08:24:34.452Z,6.6
2019-01-17T08:25:35.820Z,6.6
2019-01-17T08:26:37.188Z,6.7
2019-01-17T08:27:38.567Z,6.9
2019-01-17T08:28:39.927Z,7.0
2019-01-17T08:29:41.294Z,7.1
2019-01-17T08:30:42.661Z,7.1
2019-01-17T08:31:44.028Z,7.1
2019-01-17T08:32:45.393Z,7.1
2019-01-17T08:33:46.764Z,7.1
2019-01-17T08:34:48.180Z,7.1
2019-01-17T08:35:49.505Z,7.1
2019-01-17T08:36:50.872Z,7.1
2019-01-17T08:37:52.235Z,7.2
2019-01-17T08:38:53.602Z,7.1
2019-01-17T08:39:54.969Z,7.1
2019-01-17T08:40:56.338Z,7.2
2019-01-17T08:41:57.705Z,7.2
2019-01-17T08:42:59.074Z,7.1
2019-01-17T08:44:00.440Z,7.2
2019-01-17T08:45:01.806Z,7.1
2019-01-17T08:46:03.175Z,7.1
2019-01-17T08:47:04.544Z,7.0
2019-01-17T08:48:05.910Z,6.9
2019-01-17T08:49:07.281Z,7.0
2019-01-17T08:50:08.650Z,6.9
2019-01-17T08:51:10.015Z,6.9
2019-01-17T08:52:11.380Z,6.9
2019-01-17T08:53:12.757Z,6.9
2019-01-17T08:54:14.120Z,6.9
2019-01-17T08:55:15.488Z,6.9
2019-01-17T08:56:16.856Z,6.9
2019-01-17T08:57:18.228Z,6.9
2019-01-17T08:58:19.591Z,6.9
2019-01-17T08:59:20.961Z,6.9
2019-01-17T09:00:22.327Z,6.9
2019-01-17T09:01:23.695Z,7.0
2019-01-17T09:02:25.063Z,7.3
2019-01-17T09:03:26.434Z,7.6
2019-01-17T09:04:27.804Z,8.0
2019-01-17T09:05:29.168Z,8.2
2019-01-17T09:06:30.535Z,8.5
2019-01-17T09:07:31.905Z,8.7
2019-01-17T09:08:33.274Z,9.0
2019-01-17T09:09:34.643Z,9.2
2019-01-17T09:10:36.015Z,9.4
2019-01-17T09:11:37.393Z,9.7
2019-01-17T09:12:38.758Z,9.8
2019-01-17T09:13:40.126Z,9.9
2019-01-17T09:14:41.499Z,10.2
2019-01-17T09:15:42.874Z,10.2
2019-01-17T09:16:44.247Z,10.4
2019-01-17T09:17:45.621Z,10.6
2019-01-17T09:18:46.993Z,10.7
2019-01-17T09:19:48.362Z,10.9
2019-01-17T09:20:49.733Z,11.0
2019-01-17T09:21:51.104Z,11.1
2019-01-17T09:22:52.480Z,11.4
2019-01-17T09:23:53.846Z,11.3
2019-01-17T09:24:55.223Z,11.3
2019-01-17T09:25:56.599Z,11.1
2019-01-17T09:26:57.970Z,11.3
2019-01-17T09:27:59.338Z,11.4
2019-01-17T09:29:00.722Z,11.3
2019-01-17T09:30:02.111Z,11.1
2019-01-17T09:31:03.465Z,11.1
2019-01-17T09:32:04.846Z,11.3
2019-01-17T09:33:06.218Z,11.4
2019-01-17T09:34:07.593Z,11.9
2019-01-17T09:35:08.964Z,12.1
2019-01-17T09:36:10.334Z,11.6
2019-01-17T09:37:11.709Z,11.4
2019-01-17T09:38:13.085Z,11.4
2019-01-17T09:39:14.477Z,11.3
2019-01-17T09:40:15.853Z,11.8
2019-01-17T09:41:17.217Z,11.9
2019-01-17T09:42:18.589Z,11.6
2019-01-17T09:43:19.965Z,11.3
2019-01-17T09:44:21.337Z,11.2
2019-01-17T09:45:22.714Z,10.9
2019-01-17T09:46:24.099Z,10.7
2019-01-17T09:47:25.465Z,10.5
2019-01-17T09:48:26.853Z,10.4
2019-01-17T09:49:28.226Z,10.4
2019-01-17T09:50:29.598Z,10.8
2019-01-17T09:51:30.969Z,11.7
2019-01-17T09:52:32.352Z,11.7
2019-01-17T09:53:33.721Z,12.9
2019-01-17T09:54:35.094Z,13.0
2019-01-17T09:55:36.466Z,13.7
2019-01-17T09:56:37.839Z,13.2
2019-01-17T09:57:39.207Z,13.5
2019-01-17T09:58:40.582Z,13.1
2019-01-17T09:59:41.953Z,12.3
2019-01-17T10:00:43.327Z,11.8
2019-01-17T10:01:44.702Z,11.5
2019-01-17T10:02:46.072Z,11.5
2019-01-17T10:03:47.443Z,11.2
2019-01-17T10:04:48.820Z,11.0
2019-01-17T10:05:50.192Z,10.7
2019-01-17T10:06:51.566Z,10.4
2019-01-17T10:07:52.936Z,10.2
2019-01-17T10:08:54.311Z,10.1
2019-01-17T10:09:55.680Z,9.9
2019-01-17T10:10:57.051Z,10.1
2019-01-17T10:11:58.423Z,10.2
2019-01-17T10:12:59.794Z,10.3
2019-01-17T10:14:01.167Z,10.2
2019-01-17T10:15:02.540Z,10.2
2019-01-17T10:16:03.913Z,10.0
2019-01-17T10:17:05.287Z,9.9
2019-01-17T10:18:06.657Z,9.8
2019-01-17T10:19:08.025Z,9.7
2019-01-17T10:20:09.393Z,9.6
2019-01-17T10:21:10.763Z,9.6
2019-01-17T10:22:12.149Z,9.5
2019-01-17T10:23:13.518Z,9.3
2019-01-17T10:24:14.889Z,9.2
2019-01-17T10:25:16.257Z,9.2
2019-01-17T10:26:21.129Z,9.2
2019-01-17T10:27:18.965Z,9.2
2019-01-17T10:28:20.343Z,9.2
2019-01-17T10:29:21.707Z,9.0
2019-01-17T10:30:23.078Z,9.1
2019-01-17T10:31:24.443Z,9.0
2019-01-17T10:32:25.809Z,8.8
2019-01-17T10:33:27.174Z,8.8
2019-01-17T10:34:28.545Z,8.8
2019-01-17T10:35:29.914Z,8.8
2019-01-17T10:36:31.286Z,8.8
2019-01-17T10:37:32.659Z,8.8
2019-01-17T10:38:34.022Z,8.8
2019-01-17T10:39:35.394Z,8.8
2019-01-17T10:40:36.766Z,8.8
2019-01-17T10:41:38.131Z,8.8
2019-01-17T10:42:39.501Z,8.9
2019-01-17T10:43:40.873Z,8.9
2019-01-17T10:44:42.242Z,8.9
2019-01-17T10:45:43.609Z,9.0
2019-01-17T10:46:44.976Z,9.0
2019-01-17T10:47:46.347Z,9.0
2019-01-17T10:48:47.719Z,8.9
2019-01-17T10:49:49.085Z,9.0
2019-01-17T10:50:50.459Z,9.0
2019-01-17T10:51:51.828Z,8.9
2019-01-17T10:52:53.194Z,8.8
2019-01-17T10:53:54.561Z,8.8
2019-01-17T10:54:55.931Z,8.8
2019-01-17T10:55:57.301Z,8.8
2019-01-17T10:56:58.669Z,8.8
2019-01-17T10:58:00.040Z,8.5
2019-01-17T10:59:01.410Z,8.5
2019-01-17T11:00:02.780Z,8.5
2019-01-17T11:01:04.142Z,8.5
2019-01-17T11:02:05.508Z,8.4
2019-01-17T11:03:06.882Z,8.2
2019-01-17T11:04:08.250Z,8.0
2019-01-17T11:05:09.615Z,7.9
2019-01-17T11:06:10.986Z,7.7
2019-01-17T11:07:12.353Z,7.7
2019-01-17T11:08:13.719Z,7.8
2019-01-17T11:09:15.089Z,7.7
2019-01-17T11:10:16.456Z,7.7
2019-01-17T11:11:17.826Z,7.7
2019-01-17T11:12:19.197Z,7.7
2019-01-17T11:13:20.568Z,7.6
2019-01-17T11:14:21.932Z,7.6
2019-01-17T11:15:23.298Z,7.6
2019-01-17T11:16:24.665Z,7.5
2019-01-17T11:17:26.032Z,7.5
2019-01-17T11:18:27.400Z,7.5
2019-01-17T11:19:28.765Z,7.4
2019-01-17T11:20:30.135Z,7.3
2019-01-17T11:21:31.501Z,7.4
2019-01-17T11:22:32.867Z,7.3
2019-01-17T11:23:34.239Z,7.4
2019-01-17T11:24:35.596Z,7.3
2019-01-17T11:25:36.963Z,7.2
2019-01-17T11:26:38.333Z,7.3
2019-01-17T11:27:39.701Z,7.3
2019-01-17T11:28:41.065Z,7.2
2019-01-17T11:29:42.529Z,7.1
2019-01-17T11:30:43.891Z,6.9
2019-01-17T11:31:45.257Z,6.9
2019-01-17T11:32:46.622Z,6.7
2019-01-17T11:33:47.991Z,6.7
2019-01-17T11:34:49.370Z,6.6
2019-01-17T11:35:50.723Z,6.5
2019-01-17T11:36:52.087Z,6.4
2019-01-17T11:37:53.451Z,6.3
2019-01-17T11:38:54.820Z,6.2
2019-01-17T11:39:56.184Z,6.2
2019-01-17T11:40:57.554Z,6.3
2019-01-17T11:41:58.923Z,6.1
2019-01-17T11:43:00.290Z,6.0
2019-01-17T11:44:01.654Z,5.8
2019-01-17T11:45:03.020Z,5.7
2019-01-17T11:46:04.385Z,5.6
2019-01-17T11:47:05.752Z,5.4
2019-01-17T11:48:07.125Z,5.5
2019-01-17T11:49:08.494Z,5.4
2019-01-17T11:50:09.859Z,5.4
2019-01-17T11:51:11.224Z,5.2
2019-01-17T11:52:12.589Z,5.3
2019-01-17T11:53:13.956Z,5.3
2019-01-17T11:54:15.324Z,5.1
2019-01-17T11:55:16.726Z,5.2
2019-01-17T11:56:18.089Z,5.1
2019-01-17T11:57:19.454Z,5.1
2019-01-17T11:58:20.817Z,5.1
2019-01-17T11:59:22.197Z,5.1
2019-01-17T12:00:23.564Z,5.1
2019-01-17T12:01:24.932Z,5.2
2019-01-17T12:02:26.299Z,5.2
2019-01-17T12:03:27.668Z,5.1
2019-01-17T12:04:29.035Z,5.1
2019-01-17T12:05:30.403Z,5.1
2019-01-17T12:06:31.768Z,4.9
2019-01-17T12:07:33.134Z,5.1
2019-01-17T12:08:34.505Z,5.0
2019-01-17T12:09:35.877Z,5.1
2019-01-17T12:10:37.239Z,5.0
2019-01-17T12:11:38.608Z,5.1
2019-01-17T12:12:39.976Z,5.1
2019-01-17T12:13:41.340Z,5.3
2019-01-17T12:14:42.707Z,5.1
2019-01-17T12:15:44.074Z,5.4
2019-01-17T12:16:45.444Z,5.3
2019-01-17T12:17:46.814Z,5.4
2019-01-17T12:18:48.177Z,5.4
2019-01-17T12:19:49.544Z,5.5
2019-01-17T12:20:50.915Z,5.4
2019-01-17T12:21:52.282Z,5.4
2019-01-17T12:22:53.651Z,5.5
2019-01-17T12:23:55.031Z,5.5
2019-01-17T12:24:56.388Z,5.5
2019-01-17T12:25:57.759Z,5.4
2019-01-17T12:26:59.122Z,5.4
2019-01-17T12:28:00.499Z,5.4
2019-01-17T12:29:01.869Z,5.5
2019-01-17T12:30:03.237Z,5.5
2019-01-17T12:31:04.607Z,5.6
2019-01-17T12:32:05.980Z,5.5
2019-01-17T12:33:07.363Z,5.5
2019-01-17T12:34:08.731Z,5.6
2019-01-17T12:35:10.097Z,5.5
2019-01-17T12:36:11.463Z,5.4
2019-01-17T12:37:12.828Z,5.5
2019-01-17T12:38:14.198Z,5.4
2019-01-17T12:39:15.566Z,5.3
2019-01-17T12:40:16.930Z,5.3
2019-01-17T12:41:18.298Z,5.3
2019-01-17T12:42:19.667Z,5.2
2019-01-17T12:43:21.040Z,5.3
2019-01-17T12:44:22.409Z,5.2
2019-01-17T12:45:23.801Z,5.3
2019-01-17T12:46:25.171Z,5.3
2019-01-17T12:47:26.534Z,5.3
2019-01-17T12:48:27.899Z,5.2
2019-01-17T12:49:29.279Z,5.2
2019-01-17T12:50:31.825Z,5.2
2019-01-17T12:51:31.977Z,5.2
2019-01-17T12:52:33.345Z,5.3
2019-01-17T12:53:34.715Z,5.3
2019-01-17T12:54:36.087Z,5.2
2019-01-17T12:55:37.451Z,5.2
2019-01-17T12:56:38.816Z,5.3
2019-01-17T12:57:40.185Z,5.2
2019-01-17T12:58:41.552Z,5.2
2019-01-17T12:59:42.921Z,5.3
2019-01-17T13:00:44.287Z,5.1
2019-01-17T13:01:45.654Z,5.1
2019-01-17T13:02:47.019Z,5.1
2019-01-17T13:03:48.387Z,5.1
2019-01-17T13:04:49.751Z,5.1
2019-01-17T13:05:51.120Z,5.1
2019-01-17T13:06:52.492Z,5.1
2019-01-17T13:07:53.871Z,4.9
2019-01-17T13:08:55.227Z,4.9
2019-01-17T13:09:56.592Z,4.9
2019-01-17T13:10:57.959Z,5.0
2019-01-17T13:11:59.321Z,4.9
2019-01-17T13:13:00.693Z,5.1
2019-01-17T13:14:02.058Z,5.1
2019-01-17T13:15:03.426Z,5.0
2019-01-17T13:16:04.793Z,5.1
2019-01-17T13:17:06.156Z,5.1
2019-01-17T13:18:07.527Z,5.1
2019-01-17T13:19:08.901Z,5.1
2019-01-17T13:20:10.259Z,5.1
2019-01-17T13:21:11.629Z,5.1
2019-01-17T13:22:12.997Z,5.1
2019-01-17T13:23:14.362Z,5.1
2019-01-17T13:24:15.727Z,5.1
2019-01-17T13:25:17.091Z,5.1
2019-01-17T13:26:18.463Z,5.2
2019-01-17T13:27:19.833Z,5.2
2019-01-17T13:28:21.203Z,5.3
2019-01-17T13:29:22.571Z,5.1
2019-01-17T13:30:23.937Z,5.3
2019-01-17T13:31:25.306Z,5.3
2019-01-17T13:32:26.672Z,5.2
2019-01-17T13:33:28.040Z,5.2
2019-01-17T13:34:29.401Z,5.2
2019-01-17T13:35:30.769Z,5.1
2019-01-17T13:36:32.139Z,5.1
2019-01-17T13:37:33.501Z,5.2
2019-01-17T13:38:34.865Z,5.1
2019-01-17T13:39:36.231Z,5.2
2019-01-17T13:40:37.598Z,5.1
2019-01-17T13:41:38.964Z,5.2
2019-01-17T13:42:40.329Z,5.2
2019-01-17T13:43:41.700Z,5.2
2019-01-17T13:44:43.070Z,5.2
2019-01-17T13:45:44.433Z,5.1
2019-01-17T13:46:45.799Z,5.2
2019-01-17T13:47:47.169Z,5.2
2019-01-17T13:48:48.535Z,5.3
2019-01-17T13:49:49.904Z,5.1
2019-01-17T13:50:51.269Z,5.1
2019-01-17T13:51:52.639Z,5.2
2019-01-17T13:52:54.046Z,5.2
2019-01-17T13:53:55.363Z,5.1
2019-01-17T13:54:56.734Z,5.1
2019-01-17T13:55:58.101Z,5.0
2019-01-17T13:56:59.468Z,5.0
2019-01-17T13:58:00.834Z,4.9
2019-01-17T13:59:02.213Z,4.9
2019-01-17T14:00:03.566Z,4.9
2019-01-17T14:01:04.929Z,4.9
2019-01-17T14:02:06.293Z,5.0
2019-01-17T14:03:07.663Z,5.1